Time;durP1;ratioP1;P1;durP2;ratioP2;P2;SDS_P1;SDS_P2;PMS_P1;PMS_P2;Temp;Humidity;BMP_temperature;BMP_pressure;BME280_temperature;BME280_humidity;BME280_pressure;Samples;Min_cycle;Max_cycle;Signal;HPM_P1;HPM_P2
2022/11/15 00:00:20;;;;;;;66.82;49.17;;;;;;;;;;5023413;28;20030;-75
2022/11/15 00:02:46;;;;;;;68.25;48.83;;;;;;;;;;5024454;28;20048;-75
2022/11/15 00:05:12;;;;;;;63.05;43.40;;;;;;;;;;5025493;28;20068;-75
2022/11/15 00:07:38;;;;;;;61.22;43.42;;;;;;;;;;5032577;28;20034;-75
2022/11/15 00:10:05;;;;;;;59.30;43.85;;;;;;;;;;5029021;28;20380;-72
2022/11/15 00:12:31;;;;;;;57.08;43.63;;;;;;;;;;5028271;28;20510;-76
2022/11/15 00:14:57;;;;;;;72.18;50.63;;;;;;;;;;5031911;28;20445;-76
2022/11/15 00:17:23;;;;;;;65.80;47.67;;;;;;;;;;5032911;28;20526;-77
2022/11/15 00:19:49;;;;;;;66.13;45.17;;;;;;;;;;5032756;28;20357;-76
2022/11/15 00:22:15;;;;;;;56.47;41.28;;;;;;;;;;5032643;28;20064;-77
2022/11/15 00:24:41;;;;;;;57.47;40.28;;;;;;;;;;5032326;28;20053;-76
2022/11/15 00:27:07;;;;;;;61.00;43.13;;;;;;;;;;5032710;28;20022;-76
2022/11/15 00:29:33;;;;;;;60.03;44.13;;;;;;;;;;5032464;28;20100;-77
2022/11/15 00:31:59;;;;;;;59.53;43.08;;;;;;;;;;5031848;28;20057;-76
2022/11/15 00:34:25;;;;;;;66.20;43.95;;;;;;;;;;5030492;28;20065;-76
2022/11/15 00:36:51;;;;;;;67.47;45.85;;;;;;;;;;5018850;28;20030;-76
2022/11/15 00:39:17;;;;;;;65.15;45.83;;;;;;;;;;5032702;28;20028;-76
2022/11/15 00:41:43;;;;;;;65.40;46.60;;;;;;;;;;5032555;28;20034;-77
2022/11/15 00:44:09;;;;;;;68.20;44.90;;;;;;;;;;5032207;28;20022;-76
2022/11/15 00:46:35;;;;;;;65.10;46.17;;;;;;;;;;5032612;28;20383;-76
2022/11/15 00:49:01;;;;;;;80.50;48.97;;;;;;;;;;5018530;28;20479;-76
2022/11/15 00:51:27;;;;;;;65.95;46.60;;;;;;;;;;5032481;28;20478;-76
2022/11/15 00:53:54;;;;;;;64.25;44.33;;;;;;;;;;5032298;28;20487;-76
2022/11/15 00:56:20;;;;;;;59.92;42.08;;;;;;;;;;5030971;28;20029;-77
2022/11/15 00:58:46;;;;;;;63.05;44.28;;;;;;;;;;5032266;28;20426;-76
2022/11/15 01:01:13;;;;;;;61.17;44.60;;;;;;;;;;5033218;28;20045;-75
2022/11/15 01:03:40;;;;;;;62.97;42.80;;;;;;;;;;5034608;28;20446;-75
2022/11/15 01:06:06;;;;;;;65.10;41.17;;;;;;;;;;5036047;28;20108;-75
2022/11/15 01:08:33;;;;;;;59.83;42.38;;;;;;;;;;5035926;28;20022;-75
2022/11/15 01:11:03;;;;;;;57.13;40.53;;;;;;;;;;5036152;28;20333;-74
2022/11/15 01:13:32;;;;;;;58.58;42.50;;;;;;;;;;5035766;28;20033;-74
2022/11/15 01:15:59;;;;;;;57.40;42.08;;;;;;;;;;5035713;28;20083;-73
2022/11/15 01:18:25;;;;;;;59.90;42.00;;;;;;;;;;5035590;28;20071;-74
2022/11/15 01:20:51;;;;;;;56.55;42.47;;;;;;;;;;5035877;28;20100;-74
2022/11/15 01:23:17;;;;;;;55.50;41.47;;;;;;;;;;5035972;28;20033;-75
2022/11/15 01:25:43;;;;;;;59.58;41.67;;;;;;;;;;5035500;28;20123;-77
2022/11/15 01:28:09;;;;;;;61.22;44.63;;;;;;;;;;5035561;28;20407;-77
2022/11/15 01:30:36;;;;;;;55.28;40.92;;;;;;;;;;5034434;28;20488;-78
2022/11/15 01:33:02;;;;;;;54.35;42.42;;;;;;;;;;5035597;28;20052;-76
2022/11/15 01:35:28;;;;;;;59.70;44.05;;;;;;;;;;5035912;28;20015;-76
2022/11/15 01:37:54;;;;;;;62.80;44.90;;;;;;;;;;5035434;28;20114;-77
2022/11/15 01:40:20;;;;;;;61.97;45.22;;;;;;;;;;5035365;28;20022;-74
2022/11/15 01:42:46;;;;;;;60.80;44.08;;;;;;;;;;5035273;28;20138;-76
2022/11/15 01:45:14;;;;;;;65.38;46.53;;;;;;;;;;5035324;28;20063;-75
2022/11/15 01:47:42;;;;;;;63.85;46.88;;;;;;;;;;5035078;28;20526;-76
2022/11/15 01:50:11;;;;;;;68.13;48.00;;;;;;;;;;5035372;28;20100;-77
2022/11/15 01:52:38;;;;;;;69.40;50.80;;;;;;;;;;5035266;28;20180;-76
2022/11/15 01:55:14;;;;;;;72.25;53.10;;;;;;;;;;5034907;28;20063;-77
2022/11/15 01:57:42;;;;;;;89.25;61.53;;;;;;;;;;5035364;28;20048;-77
2022/11/15 02:00:08;;;;;;;90.18;64.00;;;;;;;;;;5031221;28;20026;-76
2022/11/15 02:02:36;;;;;;;90.57;64.95;;;;;;;;;;5025014;28;20089;-77
2022/11/15 02:05:02;;;;;;;83.85;61.70;;;;;;;;;;5035027;28;20079;-76
2022/11/15 02:07:28;;;;;;;81.85;58.25;;;;;;;;;;5033805;28;20053;-77
2022/11/15 02:09:55;;;;;;;83.10;58.70;;;;;;;;;;5021041;28;20018;-76
2022/11/15 02:12:21;;;;;;;88.28;66.38;;;;;;;;;;5026973;28;20021;-76
2022/11/15 02:14:50;;;;;;;84.55;62.60;;;;;;;;;;5027504;28;20065;-74
2022/11/15 02:17:25;;;;;;;92.07;63.03;;;;;;;;;;5035048;28;20029;-75
2022/11/15 02:20:10;;;;;;;74.82;54.45;;;;;;;;;;5034482;28;20029;-74
2022/11/15 02:23:01;;;;;;;70.90;52.83;;;;;;;;;;5034499;28;20072;-76
2022/11/15 02:25:33;;;;;;;72.87;52.90;;;;;;;;;;5034130;28;20029;-76
2022/11/15 02:28:08;;;;;;;70.30;51.72;;;;;;;;;;5034544;28;20454;-75
2022/11/15 02:30:34;;;;;;;73.03;51.22;;;;;;;;;;5034341;28;20029;-75
2022/11/15 02:33:09;;;;;;;72.10;53.28;;;;;;;;;;5034726;28;20033;-76
2022/11/15 02:35:46;;;;;;;76.63;55.65;;;;;;;;;;5034356;28;20492;-76
2022/11/15 02:38:27;;;;;;;71.80;54.60;;;;;;;;;;5034088;28;20037;-76
2022/11/15 02:41:02;;;;;;;73.27;53.47;;;;;;;;;;5034214;28;20017;-74
2022/11/15 02:43:58;;;;;;;75.03;55.60;;;;;;;;;;5033992;28;20289;-73
2022/11/15 02:47:12;;;;;;;77.30;55.35;;;;;;;;;;5034060;28;20022;-74
2022/11/15 02:49:14;;;;;;;75.45;54.67;;;;;;;;;;5033858;28;20503;-73
2022/11/15 02:51:41;;;;;;;73.30;56.72;;;;;;;;;;5034043;28;20568;-74
2022/11/15 02:54:07;;;;;;;76.40;56.63;;;;;;;;;;5033902;28;20413;-73
2022/11/15 02:56:34;;;;;;;75.53;56.58;;;;;;;;;;5033721;28;20028;-73
2022/11/15 02:59:11;;;;;;;79.68;57.97;;;;;;;;;;5033908;28;20033;-74
2022/11/15 03:01:37;;;;;;;78.00;57.53;;;;;;;;;;5031764;28;20053;-74
2022/11/15 03:04:03;;;;;;;81.63;59.08;;;;;;;;;;5021955;28;20074;-74
2022/11/15 03:06:48;;;;;;;79.85;59.63;;;;;;;;;;5033871;28;20022;-73
2022/11/15 03:09:22;;;;;;;85.53;61.70;;;;;;;;;;5033758;28;20028;-74
2022/11/15 03:11:51;;;;;;;81.55;59.70;;;;;;;;;;5033410;28;20049;-77
2022/11/15 03:14:20;;;;;;;88.30;63.13;;;;;;;;;;5034126;28;20029;-75
2022/11/15 03:16:51;;;;;;;80.20;60.05;;;;;;;;;;5033312;28;20518;-76
2022/11/15 03:19:37;;;;;;;86.53;63.08;;;;;;;;;;5033526;28;20032;-74
2022/11/15 03:22:05;;;;;;;86.55;62.92;;;;;;;;;;5030853;28;20116;-76
2022/11/15 03:24:34;;;;;;;82.25;59.17;;;;;;;;;;5020361;28;20364;-77
2022/11/15 03:27:01;;;;;;;86.05;61.83;;;;;;;;;;5019114;28;20030;-76
2022/11/15 03:29:30;;;;;;;80.07;59.00;;;;;;;;;;5033484;28;20028;-76
2022/11/15 03:31:59;;;;;;;79.07;59.20;;;;;;;;;;5033001;28;20114;-75
2022/11/15 03:34:32;;;;;;;83.15;59.35;;;;;;;;;;5033325;28;20033;-74
2022/11/15 03:36:58;;;;;;;81.50;60.40;;;;;;;;;;5033117;28;20083;-74
2022/11/15 03:39:25;;;;;;;82.45;60.08;;;;;;;;;;5033049;28;20022;-74
2022/11/15 03:42:07;;;;;;;90.60;64.05;;;;;;;;;;5032994;28;20392;-74
2022/11/15 03:44:53;;;;;;;92.38;63.15;;;;;;;;;;5032926;28;20039;-73
2022/11/15 03:47:37;;;;;;;87.88;64.15;;;;;;;;;;5032966;28;20484;-73
2022/11/15 03:50:08;;;;;;;90.15;63.80;;;;;;;;;;5031628;28;20029;-73
2022/11/15 03:52:34;;;;;;;92.63;68.30;;;;;;;;;;5033113;28;20021;-74
2022/11/15 03:55:01;;;;;;;92.35;66.15;;;;;;;;;;5032692;28;20061;-74
2022/11/15 03:57:27;;;;;;;90.82;65.43;;;;;;;;;;5032216;28;20071;-74
2022/11/15 03:59:53;;;;;;;90.93;67.80;;;;;;;;;;5032723;28;20080;-74
2022/11/15 04:02:19;;;;;;;118.68;86.03;;;;;;;;;;5033143;28;20377;-74
2022/11/15 04:04:45;;;;;;;116.85;86.03;;;;;;;;;;5032987;28;20099;-74
2022/11/15 04:07:12;;;;;;;122.70;92.97;;;;;;;;;;5032728;28;20037;-74
2022/11/15 04:10:01;;;;;;;121.65;91.30;;;;;;;;;;5024767;28;20025;-74
2022/11/15 04:12:30;;;;;;;114.95;89.13;;;;;;;;;;5029147;28;20041;-75
2022/11/15 04:15:06;;;;;;;120.60;91.40;;;;;;;;;;5031458;28;20146;-75
2022/11/15 04:17:33;;;;;;;120.18;92.38;;;;;;;;;;5031460;28;20029;-75
2022/11/15 04:25:29;;;;;;;113.97;87.25;;;;;;;;;;5032815;28;20139;-75
2022/11/15 04:27:55;;;;;;;115.35;86.75;;;;;;;;;;5032222;28;20026;-76
2022/11/15 04:30:21;;;;;;;126.85;93.03;;;;;;;;;;5032750;28;20065;-76
2022/11/15 04:32:47;;;;;;;128.63;94.60;;;;;;;;;;5032368;28;20079;-76
2022/11/15 04:35:13;;;;;;;122.68;95.10;;;;;;;;;;5035309;28;20022;-76
2022/11/15 04:37:39;;;;;;;127.05;95.45;;;;;;;;;;5036340;28;20068;-76
2022/11/15 04:40:05;;;;;;;132.15;96.80;;;;;;;;;;5036736;28;20014;-76
2022/11/15 04:42:31;;;;;;;128.48;95.10;;;;;;;;;;5036239;28;20041;-73
2022/11/15 04:44:57;;;;;;;131.93;100.38;;;;;;;;;;5036397;28;20020;-75
2022/11/15 04:47:23;;;;;;;122.82;95.53;;;;;;;;;;5036193;28;20021;-76
2022/11/15 04:49:49;;;;;;;117.90;90.22;;;;;;;;;;5036306;28;20103;-74
2022/11/15 04:52:15;;;;;;;119.50;89.80;;;;;;;;;;5036257;28;20037;-76
2022/11/15 04:54:42;;;;;;;111.25;84.43;;;;;;;;;;5022360;28;20417;-76
2022/11/15 04:57:08;;;;;;;114.70;84.18;;;;;;;;;;5034778;28;20488;-75
2022/11/15 04:59:34;;;;;;;116.72;87.72;;;;;;;;;;5036113;28;20029;-75
2022/11/15 05:02:01;;;;;;;108.57;84.38;;;;;;;;;;5035764;28;20543;-74
2022/11/15 05:04:27;;;;;;;115.88;87.53;;;;;;;;;;5036149;28;20040;-76
2022/11/15 05:06:53;;;;;;;112.68;86.75;;;;;;;;;;5035739;28;20083;-75
2022/11/15 05:09:19;;;;;;;109.28;83.43;;;;;;;;;;5036017;28;20535;-75
2022/11/15 05:11:46;;;;;;;107.85;80.88;;;;;;;;;;5035657;28;20162;-75
2022/11/15 05:14:12;;;;;;;105.57;80.97;;;;;;;;;;5035924;28;20021;-75
2022/11/15 05:16:39;;;;;;;107.00;83.38;;;;;;;;;;5035671;28;20025;-74
2022/11/15 05:19:05;;;;;;;102.72;77.38;;;;;;;;;;5035824;28;20480;-75
2022/11/15 05:21:31;;;;;;;105.78;82.40;;;;;;;;;;5031244;28;20559;-75
2022/11/15 05:23:57;;;;;;;104.35;81.10;;;;;;;;;;5033536;28;20032;-75
2022/11/15 05:26:23;;;;;;;109.78;80.22;;;;;;;;;;5035362;28;20022;-75
2022/11/15 05:28:57;;;;;;;110.15;79.03;;;;;;;;;;5035524;28;20029;-75
2022/11/15 05:31:24;;;;;;;105.32;78.50;;;;;;;;;;5034570;28;20026;-74
2022/11/15 05:33:53;;;;;;;103.35;79.50;;;;;;;;;;5021884;28;20030;-74
2022/11/15 05:36:20;;;;;;;101.53;76.57;;;;;;;;;;5035430;28;20056;-74
2022/11/15 05:38:49;;;;;;;114.20;86.90;;;;;;;;;;5035523;28;20029;-74
2022/11/15 05:41:17;;;;;;;107.78;79.28;;;;;;;;;;5035362;28;20376;-75
2022/11/15 05:43:44;;;;;;;115.82;84.53;;;;;;;;;;5034980;28;20496;-75
2022/11/15 05:46:10;;;;;;;124.25;89.90;;;;;;;;;;5033389;28;20506;-75
2022/11/15 05:48:37;;;;;;;182.45;140.43;;;;;;;;;;5035206;28;20028;-76
2022/11/15 05:51:04;;;;;;;335.38;238.65;;;;;;;;;;5035229;28;20021;-75
2022/11/15 05:53:30;;;;;;;228.05;168.43;;;;;;;;;;5034978;28;20366;-74
2022/11/15 05:55:57;;;;;;;195.70;152.07;;;;;;;;;;5024096;28;20109;-75
2022/11/15 05:58:23;;;;;;;170.98;135.80;;;;;;;;;;5032070;28;20540;-75
2022/11/15 06:00:49;;;;;;;129.25;101.50;;;;;;;;;;5034889;28;20495;-74
2022/11/15 06:03:15;;;;;;;131.57;99.80;;;;;;;;;;5034598;28;20415;-76
2022/11/15 06:05:41;;;;;;;122.80;93.00;;;;;;;;;;5034936;28;20032;-74
2022/11/15 06:08:07;;;;;;;118.03;88.47;;;;;;;;;;5034904;28;20053;-74
2022/11/15 06:10:33;;;;;;;124.38;93.30;;;;;;;;;;5034901;28;20021;-74
2022/11/15 06:13:04;;;;;;;122.22;94.43;;;;;;;;;;5034695;28;20029;-73
2022/11/15 06:15:30;;;;;;;122.03;91.83;;;;;;;;;;5034765;28;20017;-74
2022/11/15 06:18:00;;;;;;;117.60;93.55;;;;;;;;;;5034508;28;20147;-74
2022/11/15 06:20:26;;;;;;;115.10;85.88;;;;;;;;;;5034528;28;20025;-75
2022/11/15 06:22:57;;;;;;;119.88;90.85;;;;;;;;;;5034350;28;20068;-74
2022/11/15 06:25:23;;;;;;;91.27;68.77;;;;;;;;;;5033483;28;20021;-75
2022/11/15 06:27:53;;;;;;;120.15;91.55;;;;;;;;;;5034598;28;20128;-75
2022/11/15 06:30:19;;;;;;;125.70;93.40;;;;;;;;;;5025143;28;20464;-76
2022/11/15 06:32:46;;;;;;;125.20;97.45;;;;;;;;;;5023473;28;20384;-72
2022/11/15 06:35:12;;;;;;;136.68;103.50;;;;;;;;;;5015041;28;20028;-73
2022/11/15 06:37:38;;;;;;;125.88;100.43;;;;;;;;;;5013772;28;20126;-72
2022/11/15 06:40:04;;;;;;;147.85;111.38;;;;;;;;;;5014081;28;20021;-72
2022/11/15 06:42:30;;;;;;;142.73;106.90;;;;;;;;;;5013725;28;20064;-72
2022/11/15 06:44:56;;;;;;;133.95;99.43;;;;;;;;;;5012480;28;20029;-73
2022/11/15 06:47:23;;;;;;;139.13;104.70;;;;;;;;;;5013597;28;20029;-73
2022/11/15 06:49:49;;;;;;;134.77;103.03;;;;;;;;;;5019782;28;20101;-72
2022/11/15 06:52:15;;;;;;;129.70;100.13;;;;;;;;;;5016479;28;20116;-73
2022/11/15 06:54:41;;;;;;;138.05;105.60;;;;;;;;;;5016026;28;20062;-74
2022/11/15 06:57:07;;;;;;;131.82;99.55;;;;;;;;;;5013511;28;20081;-74
2022/11/15 06:59:33;;;;;;;130.68;101.28;;;;;;;;;;5018885;28;20045;-73
2022/11/15 07:01:59;;;;;;;134.52;99.88;;;;;;;;;;5025487;28;20168;-75
2022/11/15 07:04:25;;;;;;;130.80;98.20;;;;;;;;;;5026773;28;20030;-75
2022/11/15 07:06:51;;;;;;;133.52;100.55;;;;;;;;;;5033580;28;20100;-75
2022/11/15 07:09:17;;;;;;;134.98;103.28;;;;;;;;;;5033783;28;20487;-75
2022/11/15 07:11:43;;;;;;;126.85;98.03;;;;;;;;;;5033562;28;20025;-75
2022/11/15 07:14:09;;;;;;;141.43;107.05;;;;;;;;;;5033205;28;20018;-75
2022/11/15 07:16:36;;;;;;;140.18;108.03;;;;;;;;;;5033434;28;20391;-74
2022/11/15 07:19:03;;;;;;;128.95;103.00;;;;;;;;;;5019356;28;20022;-73
2022/11/15 07:21:29;;;;;;;134.00;105.82;;;;;;;;;;5033299;28;20104;-74
2022/11/15 07:23:55;;;;;;;139.65;107.50;;;;;;;;;;5033194;28;20029;-74
2022/11/15 07:26:21;;;;;;;134.70;105.57;;;;;;;;;;5031401;28;20036;-74
2022/11/15 07:28:47;;;;;;;132.25;105.80;;;;;;;;;;5026379;28;20100;-75
2022/11/15 07:31:13;;;;;;;143.38;113.72;;;;;;;;;;5019388;28;20026;-75
2022/11/15 07:33:39;;;;;;;152.77;117.95;;;;;;;;;;5031922;28;20021;-74
2022/11/15 07:36:06;;;;;;;144.20;109.38;;;;;;;;;;5033187;28;20466;-75
2022/11/15 07:38:32;;;;;;;138.65;105.70;;;;;;;;;;5032894;28;20387;-74
2022/11/15 07:40:59;;;;;;;130.82;106.03;;;;;;;;;;5033241;28;20036;-75
2022/11/15 07:43:27;;;;;;;132.73;102.22;;;;;;;;;;5032644;28;20072;-75
2022/11/15 07:45:54;;;;;;;129.18;100.32;;;;;;;;;;5033251;28;20018;-74
2022/11/15 07:48:20;;;;;;;121.00;96.00;;;;;;;;;;5032830;28;20030;-74
2022/11/15 07:50:46;;;;;;;117.53;92.97;;;;;;;;;;5033038;28;20018;-75
2022/11/15 07:53:12;;;;;;;119.78;94.40;;;;;;;;;;5032924;28;20029;-74
2022/11/15 07:55:40;;;;;;;119.07;91.70;;;;;;;;;;5033037;28;20358;-75
2022/11/15 07:58:07;;;;;;;152.45;121.18;;;;;;;;;;5032635;28;20036;-75
2022/11/15 08:00:34;;;;;;;156.85;119.60;;;;;;;;;;5032849;28;20017;-72
2022/11/15 08:03:07;;;;;;;150.95;117.38;;;;;;;;;;5032627;28;20038;-75
2022/11/15 08:05:33;;;;;;;137.85;108.32;;;;;;;;;;5032712;28;20380;-75
2022/11/15 08:07:59;;;;;;;130.38;102.72;;;;;;;;;;5032634;28;20032;-76
2022/11/15 08:10:26;;;;;;;118.25;90.43;;;;;;;;;;5032461;28;20423;-75
2022/11/15 08:13:02;;;;;;;107.63;84.85;;;;;;;;;;5032512;28;20072;-75
2022/11/15 08:15:28;;;;;;;119.43;91.80;;;;;;;;;;5031339;28;20018;-74
2022/11/15 08:17:58;;;;;;;110.65;87.00;;;;;;;;;;5032723;28;20025;-75
2022/11/15 08:20:25;;;;;;;108.75;89.20;;;;;;;;;;5032209;28;20033;-74
2022/11/15 08:22:51;;;;;;;109.43;85.97;;;;;;;;;;5032557;28;20037;-73
2022/11/15 08:25:17;;;;;;;111.63;86.80;;;;;;;;;;5032255;28;20515;-74
2022/11/15 08:27:44;;;;;;;114.32;85.43;;;;;;;;;;5032548;28;20033;-74
2022/11/15 08:30:11;;;;;;;103.70;80.85;;;;;;;;;;5032259;28;20037;-75
2022/11/15 08:32:37;;;;;;;109.15;86.25;;;;;;;;;;5032499;28;20112;-74
2022/11/15 08:35:03;;;;;;;107.93;82.68;;;;;;;;;;5032208;28;20026;-75
2022/11/15 08:37:29;;;;;;;108.50;82.95;;;;;;;;;;5032373;28;20507;-75
2022/11/15 08:39:55;;;;;;;104.70;79.45;;;;;;;;;;5032401;28;20034;-75
2022/11/15 08:42:21;;;;;;;104.90;82.45;;;;;;;;;;5032466;28;20571;-74
2022/11/15 08:44:47;;;;;;;105.32;81.28;;;;;;;;;;5032068;28;20481;-74
2022/11/15 08:47:13;;;;;;;133.65;100.13;;;;;;;;;;5032368;28;20017;-75
2022/11/15 08:49:39;;;;;;;120.40;91.40;;;;;;;;;;5032151;28;20105;-73
2022/11/15 08:52:05;;;;;;;109.55;82.30;;;;;;;;;;5032531;28;20026;-76
2022/11/15 08:54:31;;;;;;;114.78;85.47;;;;;;;;;;5032316;28;20025;-72
2022/11/15 08:56:58;;;;;;;119.45;91.30;;;;;;;;;;5032385;28;20353;-73
2022/11/15 08:59:24;;;;;;;116.53;93.28;;;;;;;;;;5032034;28;20033;-76
2022/11/15 09:01:50;;;;;;;113.82;89.93;;;;;;;;;;5031825;28;20129;-75
2022/11/15 09:04:16;;;;;;;122.60;93.07;;;;;;;;;;5032314;28;20368;-75
2022/11/15 09:06:42;;;;;;;126.03;96.88;;;;;;;;;;5032100;28;20087;-76
2022/11/15 09:09:08;;;;;;;121.65;95.35;;;;;;;;;;5031998;28;20032;-76
2022/11/15 09:11:34;;;;;;;122.15;94.43;;;;;;;;;;5032180;28;20108;-77
2022/11/15 09:14:00;;;;;;;122.72;94.05;;;;;;;;;;5031628;28;20033;-76
2022/11/15 09:16:26;;;;;;;119.18;90.13;;;;;;;;;;5032380;28;20021;-76
2022/11/15 09:18:53;;;;;;;122.32;95.30;;;;;;;;;;5031954;28;20032;-75
2022/11/15 09:21:19;;;;;;;126.82;100.40;;;;;;;;;;5032938;28;20047;-77
2022/11/15 09:23:46;;;;;;;128.75;97.95;;;;;;;;;;5035448;28;20044;-73
2022/11/15 09:26:12;;;;;;;134.30;104.38;;;;;;;;;;5035894;28;20030;-75
2022/11/15 09:28:41;;;;;;;136.98;107.50;;;;;;;;;;5035368;28;20025;-77
2022/11/15 09:31:07;;;;;;;133.98;108.13;;;;;;;;;;5035656;28;20227;-74
2022/11/15 09:33:33;;;;;;;137.82;109.32;;;;;;;;;;5035421;28;20108;-76
2022/11/15 09:36:01;;;;;;;142.32;110.18;;;;;;;;;;5035113;28;20017;-74
2022/11/15 09:38:27;;;;;;;171.85;129.57;;;;;;;;;;5035220;28;20431;-76
2022/11/15 09:40:58;;;;;;;155.52;125.03;;;;;;;;;;5035228;28;20025;-75
2022/11/15 09:43:44;;;;;;;162.05;130.82;;;;;;;;;;5035147;28;20578;-75
2022/11/15 09:46:16;;;;;;;176.77;139.98;;;;;;;;;;5034669;28;20040;-72
2022/11/15 09:48:54;;;;;;;179.30;147.48;;;;;;;;;;5035204;28;20052;-77
2022/11/15 09:51:28;;;;;;;181.60;143.65;;;;;;;;;;5034858;28;20156;-77
2022/11/15 09:53:59;;;;;;;186.65;151.35;;;;;;;;;;5035425;28;20022;-76
2022/11/15 09:56:27;;;;;;;185.52;146.23;;;;;;;;;;5034890;28;20018;-76
2022/11/15 09:58:54;;;;;;;154.98;127.00;;;;;;;;;;5034965;28;20476;-75
2022/11/15 10:01:23;;;;;;;160.07;128.75;;;;;;;;;;5034578;28;20443;-75
2022/11/15 10:03:49;;;;;;;147.52;122.30;;;;;;;;;;5033647;28;20072;-75
2022/11/15 10:06:23;;;;;;;143.23;120.13;;;;;;;;;;5034918;28;20029;-77
2022/11/15 10:08:56;;;;;;;142.50;118.35;;;;;;;;;;5034723;28;20028;-76
2022/11/15 10:11:25;;;;;;;146.73;118.80;;;;;;;;;;5034590;28;20100;-77
2022/11/15 10:13:53;;;;;;;150.20;117.80;;;;;;;;;;5034459;28;20017;-76
2022/11/15 10:16:28;;;;;;;145.40;115.18;;;;;;;;;;5034514;28;20037;-77
2022/11/15 10:19:12;;;;;;;134.18;107.50;;;;;;;;;;5034510;28;20369;-77
2022/11/15 10:21:48;;;;;;;125.07;99.18;;;;;;;;;;5034490;28;20097;-76
2022/11/15 10:24:18;;;;;;;110.05;87.82;;;;;;;;;;5034320;28;20039;-76
2022/11/15 10:26:48;;;;;;;112.00;85.32;;;;;;;;;;5034867;28;20026;-76
2022/11/15 10:29:24;;;;;;;101.07;80.90;;;;;;;;;;5034335;28;20032;-77
2022/11/15 10:31:50;;;;;;;89.57;73.47;;;;;;;;;;5034329;28;20029;-76
2022/11/15 10:34:20;;;;;;;97.00;73.90;;;;;;;;;;5029181;28;20030;-76
2022/11/15 10:36:47;;;;;;;82.88;66.20;;;;;;;;;;5026142;28;20456;-75
2022/11/15 10:39:14;;;;;;;83.50;69.25;;;;;;;;;;5033893;28;20458;-76
2022/11/15 10:41:41;;;;;;;91.88;71.93;;;;;;;;;;5034140;28;20046;-77
2022/11/15 10:44:07;;;;;;;106.25;91.57;;;;;;;;;;5034026;28;20041;-75
2022/11/15 10:46:37;;;;;;;95.60;68.80;;;;;;;;;;5033974;28;20022;-77
2022/11/15 10:49:14;;;;;;;77.90;61.70;;;;;;;;;;5033742;28;20476;-77
2022/11/15 10:51:45;;;;;;;91.82;68.68;;;;;;;;;;5034012;28;20468;-77
2022/11/15 10:54:13;;;;;;;77.50;60.08;;;;;;;;;;5033624;28;20491;-76
2022/11/15 10:56:39;;;;;;;76.75;59.17;;;;;;;;;;5033834;28;20021;-76
2022/11/15 10:59:05;;;;;;;71.35;57.25;;;;;;;;;;5033550;28;20026;-74
2022/11/15 11:01:45;;;;;;;102.78;64.90;;;;;;;;;;5033829;28;20042;-74
2022/11/15 11:04:11;;;;;;;83.88;55.80;;;;;;;;;;5033776;28;20038;-74
2022/11/15 11:06:54;;;;;;;76.40;58.05;;;;;;;;;;5033369;28;20045;-75
2022/11/15 11:09:23;;;;;;;70.68;54.08;;;;;;;;;;5033959;28;20047;-75
2022/11/15 11:11:50;;;;;;;88.22;56.58;;;;;;;;;;5033375;28;20464;-75
2022/11/15 11:14:24;;;;;;;86.28;56.60;;;;;;;;;;5033563;28;20017;-74
2022/11/15 11:16:56;;;;;;;74.35;55.70;;;;;;;;;;5033141;28;20435;-75
2022/11/15 11:19:34;;;;;;;73.70;51.50;;;;;;;;;;5032242;28;20372;-74
2022/11/15 11:22:10;;;;;;;67.40;53.72;;;;;;;;;;5032985;28;20037;-76
2022/11/15 11:24:54;;;;;;;74.13;55.28;;;;;;;;;;5033336;28;20104;-75
2022/11/15 11:27:32;;;;;;;101.10;66.10;;;;;;;;;;5033156;28;20025;-75
2022/11/15 11:30:04;;;;;;;210.95;118.45;;;;;;;;;;5033124;28;20030;-76
2022/11/15 11:32:36;;;;;;;107.63;79.15;;;;;;;;;;5033040;28;20030;-74
2022/11/15 11:35:09;;;;;;;68.95;49.22;;;;;;;;;;5033278;28;20464;-77
2022/11/15 11:37:43;;;;;;;80.68;52.70;;;;;;;;;;5032775;28;20024;-76
2022/11/15 11:40:13;;;;;;;59.67;46.30;;;;;;;;;;5032746;28;20491;-75
2022/11/15 11:42:41;;;;;;;58.95;45.80;;;;;;;;;;5033063;28;20037;-75
2022/11/15 11:45:11;;;;;;;71.45;51.03;;;;;;;;;;5032393;28;20056;-77
2022/11/15 11:47:40;;;;;;;59.65;45.13;;;;;;;;;;5033092;28;20415;-78
2022/11/15 11:50:14;;;;;;;61.90;46.10;;;;;;;;;;5032667;28;20361;-75
2022/11/15 11:52:43;;;;;;;71.65;54.05;;;;;;;;;;5032967;28;20109;-75
2022/11/15 11:55:18;;;;;;;57.65;46.63;;;;;;;;;;5032466;28;20022;-77
2022/11/15 11:58:02;;;;;;;72.93;48.22;;;;;;;;;;5032938;28;20064;-75
2022/11/15 12:00:31;;;;;;;59.17;45.08;;;;;;;;;;5032652;28;20029;-75
2022/11/15 12:02:57;;;;;;;81.63;51.33;;;;;;;;;;5033104;28;20145;-77
2022/11/15 12:05:29;;;;;;;85.80;58.30;;;;;;;;;;5032300;28;20053;-76
2022/11/15 12:07:55;;;;;;;;;;;;;;;;;;5033083;28;20025;-77
2022/11/15 12:10:23;;;;;;;52.95;41.88;;;;;;;;;;5032433;28;19963;-76
2022/11/15 12:12:53;;;;;;;70.32;43.25;;;;;;;;;;5032720;28;20468;-76
2022/11/15 12:15:25;;;;;;;78.95;56.15;;;;;;;;;;5017270;28;20030;-76
2022/11/15 12:17:51;;;;;;;105.40;70.30;;;;;;;;;;5032648;28;20040;-76
2022/11/15 12:20:17;;;;;;;53.30;44.83;;;;;;;;;;5032128;28;20071;-77
2022/11/15 12:22:45;;;;;;;52.00;44.33;;;;;;;;;;5032497;28;20384;-76
2022/11/15 12:25:29;;;;;;;68.00;46.95;;;;;;;;;;5032360;28;20029;-76
2022/11/15 12:27:58;;;;;;;89.25;65.50;;;;;;;;;;5032608;28;20345;-77
2022/11/15 12:30:25;;;;;;;95.18;62.65;;;;;;;;;;5032235;28;20033;-77
2022/11/15 12:32:59;;;;;;;77.63;45.25;;;;;;;;;;5032589;28;20040;-76
2022/11/15 12:35:42;;;;;;;59.88;46.15;;;;;;;;;;5032439;28;20029;-76
2022/11/15 12:38:34;;;;;;;82.40;55.90;;;;;;;;;;5032194;28;20475;-77
2022/11/15 12:41:17;;;;;;;88.35;58.72;;;;;;;;;;5032358;28;20096;-76
2022/11/15 12:43:44;;;;;;;136.55;88.53;;;;;;;;;;5032236;28;20041;-76
2022/11/15 12:46:20;;;;;;;127.13;81.90;;;;;;;;;;5032171;28;20029;-77
2022/11/15 12:48:48;;;;;;;139.00;91.13;;;;;;;;;;5032168;28;20017;-77
2022/11/15 12:51:14;;;;;;;194.15;120.63;;;;;;;;;;5032039;28;20025;-76
2022/11/15 12:53:40;;;;;;;48.42;41.25;;;;;;;;;;5032096;28;20057;-76
2022/11/15 12:56:18;;;;;;;62.00;45.83;;;;;;;;;;5034286;28;20167;-77
2022/11/15 12:58:57;;;;;;;55.92;43.40;;;;;;;;;;5036044;28;20060;-75
2022/11/15 13:04:16;;;;;;;46.42;37.35;;;;;;;;;;5036179;28;20495;-76
2022/11/15 13:06:44;;;;;;;43.88;35.67;;;;;;;;;;5035642;28;20068;-75
2022/11/15 13:09:28;;;;;;;46.90;37.45;;;;;;;;;;5035934;28;20029;-75
2022/11/15 13:11:55;;;;;;;51.83;39.58;;;;;;;;;;5035656;28;20068;-76
2022/11/15 13:14:37;;;;;;;52.72;40.45;;;;;;;;;;5034451;28;20033;-75
2022/11/15 13:17:23;;;;;;;68.93;45.53;;;;;;;;;;5035377;28;20022;-76
2022/11/15 13:20:10;;;;;;;69.40;46.72;;;;;;;;;;5033491;28;20029;-76
2022/11/15 13:22:54;;;;;;;59.88;42.83;;;;;;;;;;5033624;28;20212;-76
2022/11/15 13:25:20;;;;;;;75.53;40.10;;;;;;;;;;5033374;28;20037;-75
2022/11/15 13:27:50;;;;;;;59.35;40.30;;;;;;;;;;5033539;28;20032;-77
2022/11/15 13:30:20;;;;;;;77.47;49.30;;;;;;;;;;5032792;28;20091;-77
2022/11/15 13:32:47;;;;;;;80.80;50.38;;;;;;;;;;5033570;28;20160;-75
2022/11/15 13:35:23;;;;;;;69.88;45.50;;;;;;;;;;5033036;28;20527;-77
2022/11/15 13:37:49;;;;;;;63.60;41.40;;;;;;;;;;5033322;28;20377;-77
2022/11/15 13:40:24;;;;;;;70.03;46.65;;;;;;;;;;5033119;28;20483;-77
2022/11/15 13:42:51;;;;;;;73.60;50.30;;;;;;;;;;5033058;28;20038;-77
2022/11/15 13:45:18;;;;;;;63.38;45.33;;;;;;;;;;5032921;28;20108;-76
2022/11/15 13:47:44;;;;;;;62.42;48.83;;;;;;;;;;5032542;28;20029;-76
2022/11/15 13:50:12;;;;;;;73.65;53.28;;;;;;;;;;5032516;28;20116;-76
2022/11/15 13:52:40;;;;;;;87.85;56.13;;;;;;;;;;5032992;28;20025;-77
2022/11/15 13:55:13;;;;;;;71.07;50.65;;;;;;;;;;5032797;28;20022;-77
2022/11/15 13:57:39;;;;;;;79.15;48.90;;;;;;;;;;5029610;28;20037;-76
2022/11/15 14:00:06;;;;;;;65.00;44.33;;;;;;;;;;5034549;28;20026;-77
2022/11/15 14:02:34;;;;;;;89.82;65.65;;;;;;;;;;5034616;28;20057;-75
2022/11/15 14:05:02;;;;;;;79.63;59.08;;;;;;;;;;5034552;28;20110;-76
2022/11/15 14:07:29;;;;;;;72.25;56.28;;;;;;;;;;5033890;28;20084;-75
2022/11/15 14:09:55;;;;;;;87.30;60.33;;;;;;;;;;5034597;28;20068;-76
2022/11/15 14:12:24;;;;;;;90.28;66.82;;;;;;;;;;5034692;28;20033;-76
2022/11/15 14:14:51;;;;;;;87.05;68.50;;;;;;;;;;5034811;28;20181;-76
2022/11/15 14:17:23;;;;;;;94.13;70.43;;;;;;;;;;5034284;28;20083;-77
2022/11/15 14:19:50;;;;;;;86.57;65.13;;;;;;;;;;5034668;28;20102;-76
2022/11/15 14:22:28;;;;;;;79.18;61.92;;;;;;;;;;5034035;28;20037;-75
2022/11/15 14:25:12;;;;;;;83.00;62.47;;;;;;;;;;5034562;28;20460;-75
2022/11/15 14:27:39;;;;;;;83.53;61.85;;;;;;;;;;5034292;28;20527;-74